Terminal Aerodrome Forecast
Issued by NWS Duluth, MN

Home | Current Version | Previous Version | Text Only | Print | Product List | Glossary On
Versions: 1 2 3 4 5 6 7 8 9 10 11 12 13 14 15 16 17 18 19 20 21 22 23 24 25
000
FTUS43 KDLH 220500
TAFDLH
TAF
KDLH 220530Z 2206/2306 22015G25KT P6SM OVC120 WS020/24040KT
     FM220800 23014KT P6SM SCT020 OVC100
      TEMPO 2208/2212 BKN018
     FM221200 22010KT 6SM -DZ BR OVC018
     FM222000 20007KT 6SM -DZ BR OVC020=

USA.gov is the U.S. government's official web portal to all federal, state and local government web resources and services.